sensor_id;sensor_type;location;lat;lon;timestamp;P1;durP1;ratioP1;P2;durP2;ratioP2
36817;SDS011;22761;51.542;16.450;2024-03-06T00:00:05;48.80;;;27.30;;
36817;SDS011;22761;51.542;16.450;2024-03-06T00:02:36;46.10;;;26.90;;
36817;SDS011;22761;51.542;16.450;2024-03-06T00:05:05;51.80;;;27.50;;
36817;SDS011;22761;51.542;16.450;2024-03-06T00:07:36;48.40;;;28.30;;
36817;SDS011;22761;51.542;16.450;2024-03-06T00:10:05;42.80;;;26.80;;
36817;SDS011;22761;51.542;16.450;2024-03-06T00:12:33;46.50;;;27.20;;
36817;SDS011;22761;51.542;16.450;2024-03-06T00:15:02;56.00;;;31.00;;
36817;SDS011;22761;51.542;16.450;2024-03-06T00:17:30;51.90;;;30.30;;
36817;SDS011;22761;51.542;16.450;2024-03-06T00:19:59;49.50;;;29.90;;
36817;SDS011;22761;51.542;16.450;2024-03-06T00:22:28;60.20;;;31.90;;
36817;SDS011;22761;51.542;16.450;2024-03-06T00:24:56;49.40;;;29.20;;
36817;SDS011;22761;51.542;16.450;2024-03-06T00:27:24;51.00;;;30.10;;
36817;SDS011;22761;51.542;16.450;2024-03-06T00:29:52;50.00;;;30.10;;
36817;SDS011;22761;51.542;16.450;2024-03-06T00:32:21;57.90;;;32.90;;
36817;SDS011;22761;51.542;16.450;2024-03-06T00:34:51;53.50;;;31.30;;
36817;SDS011;22761;51.542;16.450;2024-03-06T00:37:19;56.10;;;31.50;;
36817;SDS011;22761;51.542;16.450;2024-03-06T00:39:48;55.40;;;29.70;;
36817;SDS011;22761;51.542;16.450;2024-03-06T00:42:16;50.00;;;28.70;;
36817;SDS011;22761;51.542;16.450;2024-03-06T00:44:44;48.90;;;28.40;;
36817;SDS011;22761;51.542;16.450;2024-03-06T00:47:12;47.20;;;26.30;;
36817;SDS011;22761;51.542;16.450;2024-03-06T00:49:41;47.20;;;28.00;;
36817;SDS011;22761;51.542;16.450;2024-03-06T00:52:10;46.70;;;26.60;;
36817;SDS011;22761;51.542;16.450;2024-03-06T00:54:38;46.90;;;28.00;;
36817;SDS011;22761;51.542;16.450;2024-03-06T00:57:06;52.30;;;29.50;;
36817;SDS011;22761;51.542;16.450;2024-03-06T00:59:35;50.70;;;28.50;;
36817;SDS011;22761;51.542;16.450;2024-03-06T01:02:03;49.30;;;27.50;;
36817;SDS011;22761;51.542;16.450;2024-03-06T01:04:32;49.90;;;28.70;;
36817;SDS011;22761;51.542;16.450;2024-03-06T01:07:00;49.10;;;28.10;;
36817;SDS011;22761;51.542;16.450;2024-03-06T01:09:28;51.60;;;27.70;;
36817;SDS011;22761;51.542;16.450;2024-03-06T01:11:57;51.60;;;28.30;;
36817;SDS011;22761;51.542;16.450;2024-03-06T01:14:25;50.70;;;28.70;;
36817;SDS011;22761;51.542;16.450;2024-03-06T01:16:53;58.10;;;31.30;;
36817;SDS011;22761;51.542;16.450;2024-03-06T01:19:23;57.90;;;30.80;;
36817;SDS011;22761;51.542;16.450;2024-03-06T01:21:51;50.70;;;30.00;;
36817;SDS011;22761;51.542;16.450;2024-03-06T01:24:19;54.30;;;30.70;;
36817;SDS011;22761;51.542;16.450;2024-03-06T01:26:48;54.40;;;29.40;;
36817;SDS011;22761;51.542;16.450;2024-03-06T01:29:16;62.00;;;32.10;;
36817;SDS011;22761;51.542;16.450;2024-03-06T01:31:46;65.10;;;34.00;;
36817;SDS011;22761;51.542;16.450;2024-03-06T01:34:15;62.70;;;34.80;;
36817;SDS011;22761;51.542;16.450;2024-03-06T01:36:43;63.50;;;33.40;;
36817;SDS011;22761;51.542;16.450;2024-03-06T01:39:11;63.30;;;34.60;;
36817;SDS011;22761;51.542;16.450;2024-03-06T01:41:46;64.10;;;33.10;;
36817;SDS011;22761;51.542;16.450;2024-03-06T01:44:16;61.80;;;33.40;;
36817;SDS011;22761;51.542;16.450;2024-03-06T01:46:45;68.60;;;35.40;;
36817;SDS011;22761;51.542;16.450;2024-03-06T01:49:17;62.60;;;35.60;;
36817;SDS011;22761;51.542;16.450;2024-03-06T01:51:59;61.20;;;34.20;;
36817;SDS011;22761;51.542;16.450;2024-03-06T01:54:29;63.80;;;33.80;;
36817;SDS011;22761;51.542;16.450;2024-03-06T01:56:59;60.40;;;33.00;;
36817;SDS011;22761;51.542;16.450;2024-03-06T01:59:30;53.90;;;30.90;;
36817;SDS011;22761;51.542;16.450;2024-03-06T02:02:04;55.30;;;31.20;;
36817;SDS011;22761;51.542;16.450;2024-03-06T02:04:33;60.00;;;30.00;;
36817;SDS011;22761;51.542;16.450;2024-03-06T02:07:02;51.60;;;29.90;;
36817;SDS011;22761;51.542;16.450;2024-03-06T02:09:30;52.40;;;30.00;;
36817;SDS011;22761;51.542;16.450;2024-03-06T02:11:58;57.30;;;30.20;;
36817;SDS011;22761;51.542;16.450;2024-03-06T02:14:27;54.80;;;29.40;;
36817;SDS011;22761;51.542;16.450;2024-03-06T02:16:57;54.70;;;29.60;;
36817;SDS011;22761;51.542;16.450;2024-03-06T02:19:36;51.60;;;28.90;;
36817;SDS011;22761;51.542;16.450;2024-03-06T02:22:06;45.20;;;28.40;;
36817;SDS011;22761;51.542;16.450;2024-03-06T02:24:35;52.70;;;30.50;;
36817;SDS011;22761;51.542;16.450;2024-03-06T02:27:04;49.40;;;28.80;;
36817;SDS011;22761;51.542;16.450;2024-03-06T02:29:33;51.10;;;29.90;;
36817;SDS011;22761;51.542;16.450;2024-03-06T02:32:01;47.30;;;30.30;;
36817;SDS011;22761;51.542;16.450;2024-03-06T02:34:33;54.80;;;30.50;;
36817;SDS011;22761;51.542;16.450;2024-03-06T02:37:01;53.00;;;30.40;;
36817;SDS011;22761;51.542;16.450;2024-03-06T02:39:29;54.40;;;29.80;;
36817;SDS011;22761;51.542;16.450;2024-03-06T02:41:58;46.40;;;29.10;;
36817;SDS011;22761;51.542;16.450;2024-03-06T02:44:26;47.30;;;28.90;;
36817;SDS011;22761;51.542;16.450;2024-03-06T02:46:54;48.40;;;28.60;;
36817;SDS011;22761;51.542;16.450;2024-03-06T02:49:22;50.10;;;28.20;;
36817;SDS011;22761;51.542;16.450;2024-03-06T02:51:51;51.30;;;30.20;;
36817;SDS011;22761;51.542;16.450;2024-03-06T02:54:19;51.10;;;28.50;;
36817;SDS011;22761;51.542;16.450;2024-03-06T02:56:48;49.20;;;28.30;;
36817;SDS011;22761;51.542;16.450;2024-03-06T02:59:16;48.50;;;27.80;;
36817;SDS011;22761;51.542;16.450;2024-03-06T03:01:44;50.30;;;27.60;;
36817;SDS011;22761;51.542;16.450;2024-03-06T03:04:13;50.00;;;29.10;;
36817;SDS011;22761;51.542;16.450;2024-03-06T03:06:41;43.10;;;27.30;;
36817;SDS011;22761;51.542;16.450;2024-03-06T03:09:09;46.00;;;28.20;;
36817;SDS011;22761;51.542;16.450;2024-03-06T03:11:41;47.20;;;29.30;;
36817;SDS011;22761;51.542;16.450;2024-03-06T03:14:10;48.80;;;28.90;;
36817;SDS011;22761;51.542;16.450;2024-03-06T03:16:38;51.30;;;29.40;;
36817;SDS011;22761;51.542;16.450;2024-03-06T03:19:07;49.60;;;29.90;;
36817;SDS011;22761;51.542;16.450;2024-03-06T03:21:36;52.00;;;30.30;;
36817;SDS011;22761;51.542;16.450;2024-03-06T03:24:04;53.30;;;30.40;;
36817;SDS011;22761;51.542;16.450;2024-03-06T03:26:33;58.70;;;31.50;;
36817;SDS011;22761;51.542;16.450;2024-03-06T03:29:01;51.30;;;30.40;;
36817;SDS011;22761;51.542;16.450;2024-03-06T03:31:29;51.10;;;30.60;;
36817;SDS011;22761;51.542;16.450;2024-03-06T03:33:57;53.30;;;31.30;;
36817;SDS011;22761;51.542;16.450;2024-03-06T03:36:26;52.00;;;30.10;;
36817;SDS011;22761;51.542;16.450;2024-03-06T03:38:54;51.20;;;30.10;;
36817;SDS011;22761;51.542;16.450;2024-03-06T03:41:22;61.30;;;31.60;;
36817;SDS011;22761;51.542;16.450;2024-03-06T03:43:50;53.80;;;32.20;;
36817;SDS011;22761;51.542;16.450;2024-03-06T03:46:18;65.90;;;35.70;;
36817;SDS011;22761;51.542;16.450;2024-03-06T03:48:47;57.80;;;32.40;;
36817;SDS011;22761;51.542;16.450;2024-03-06T03:51:15;53.90;;;31.70;;
36817;SDS011;22761;51.542;16.450;2024-03-06T03:53:44;57.70;;;30.30;;
36817;SDS011;22761;51.542;16.450;2024-03-06T03:56:12;53.00;;;28.70;;
36817;SDS011;22761;51.542;16.450;2024-03-06T03:58:41;50.80;;;29.10;;
36817;SDS011;22761;51.542;16.450;2024-03-06T04:01:12;49.10;;;29.70;;
36817;SDS011;22761;51.542;16.450;2024-03-06T04:03:41;52.30;;;29.20;;
36817;SDS011;22761;51.542;16.450;2024-03-06T04:06:10;58.80;;;31.50;;
36817;SDS011;22761;51.542;16.450;2024-03-06T04:08:39;55.80;;;30.20;;
36817;SDS011;22761;51.542;16.450;2024-03-06T04:11:07;62.10;;;30.50;;
36817;SDS011;22761;51.542;16.450;2024-03-06T04:13:38;47.70;;;28.80;;
36817;SDS011;22761;51.542;16.450;2024-03-06T04:16:07;55.10;;;29.90;;
36817;SDS011;22761;51.542;16.450;2024-03-06T04:18:35;56.00;;;32.80;;
36817;SDS011;22761;51.542;16.450;2024-03-06T04:21:04;54.20;;;34.20;;
36817;SDS011;22761;51.542;16.450;2024-03-06T04:23:33;61.00;;;34.20;;
36817;SDS011;22761;51.542;16.450;2024-03-06T04:26:01;57.30;;;31.50;;
36817;SDS011;22761;51.542;16.450;2024-03-06T04:28:31;47.60;;;29.70;;
36817;SDS011;22761;51.542;16.450;2024-03-06T04:31:00;50.80;;;29.30;;
36817;SDS011;22761;51.542;16.450;2024-03-06T04:33:28;54.20;;;29.80;;
36817;SDS011;22761;51.542;16.450;2024-03-06T04:35:56;52.50;;;29.70;;
36817;SDS011;22761;51.542;16.450;2024-03-06T04:38:24;47.90;;;29.60;;
36817;SDS011;22761;51.542;16.450;2024-03-06T04:40:53;55.80;;;31.70;;
36817;SDS011;22761;51.542;16.450;2024-03-06T04:43:22;55.40;;;30.70;;
36817;SDS011;22761;51.542;16.450;2024-03-06T04:45:50;59.70;;;29.00;;
36817;SDS011;22761;51.542;16.450;2024-03-06T04:48:18;57.30;;;30.20;;
36817;SDS011;22761;51.542;16.450;2024-03-06T04:50:46;53.20;;;29.50;;
36817;SDS011;22761;51.542;16.450;2024-03-06T04:53:15;47.70;;;28.70;;
36817;SDS011;22761;51.542;16.450;2024-03-06T04:55:43;57.10;;;29.80;;
36817;SDS011;22761;51.542;16.450;2024-03-06T04:58:12;60.50;;;30.00;;
36817;SDS011;22761;51.542;16.450;2024-03-06T05:00:41;48.10;;;29.30;;
36817;SDS011;22761;51.542;16.450;2024-03-06T05:03:09;49.30;;;28.60;;
36817;SDS011;22761;51.542;16.450;2024-03-06T05:05:55;54.20;;;29.00;;
36817;SDS011;22761;51.542;16.450;2024-03-06T05:08:41;50.40;;;29.30;;
36817;SDS011;22761;51.542;16.450;2024-03-06T05:11:27;51.90;;;29.00;;
36817;SDS011;22761;51.542;16.450;2024-03-06T05:14:13;54.10;;;29.50;;
36817;SDS011;22761;51.542;16.450;2024-03-06T05:16:58;54.60;;;30.60;;
36817;SDS011;22761;51.542;16.450;2024-03-06T05:19:45;48.20;;;28.60;;
36817;SDS011;22761;51.542;16.450;2024-03-06T05:22:34;50.00;;;29.40;;
36817;SDS011;22761;51.542;16.450;2024-03-06T05:25:20;52.40;;;29.30;;
36817;SDS011;22761;51.542;16.450;2024-03-06T05:28:06;46.80;;;28.60;;
36817;SDS011;22761;51.542;16.450;2024-03-06T05:30:52;58.30;;;30.10;;
36817;SDS011;22761;51.542;16.450;2024-03-06T05:33:38;59.50;;;31.30;;
36817;SDS011;22761;51.542;16.450;2024-03-06T05:36:24;56.90;;;30.90;;
36817;SDS011;22761;51.542;16.450;2024-03-06T05:39:09;55.50;;;29.90;;
36817;SDS011;22761;51.542;16.450;2024-03-06T05:42:01;65.40;;;29.40;;
36817;SDS011;22761;51.542;16.450;2024-03-06T05:44:50;51.80;;;30.60;;
36817;SDS011;22761;51.542;16.450;2024-03-06T05:47:40;57.00;;;31.80;;
36817;SDS011;22761;51.542;16.450;2024-03-06T05:50:26;62.40;;;32.30;;
36817;SDS011;22761;51.542;16.450;2024-03-06T05:53:12;59.20;;;31.00;;
36817;SDS011;22761;51.542;16.450;2024-03-06T05:55:57;60.70;;;31.60;;
36817;SDS011;22761;51.542;16.450;2024-03-06T05:58:42;68.00;;;33.40;;
36817;SDS011;22761;51.542;16.450;2024-03-06T06:01:14;55.60;;;32.80;;
36817;SDS011;22761;51.542;16.450;2024-03-06T06:03:44;66.60;;;31.10;;
36817;SDS011;22761;51.542;16.450;2024-03-06T06:06:14;66.70;;;31.50;;
36817;SDS011;22761;51.542;16.450;2024-03-06T06:08:47;56.20;;;29.70;;
36817;SDS011;22761;51.542;16.450;2024-03-06T06:11:15;56.70;;;31.40;;
36817;SDS011;22761;51.542;16.450;2024-03-06T06:13:43;55.80;;;31.30;;
36817;SDS011;22761;51.542;16.450;2024-03-06T06:16:12;56.80;;;32.80;;
36817;SDS011;22761;51.542;16.450;2024-03-06T06:18:40;60.60;;;30.70;;
36817;SDS011;22761;51.542;16.450;2024-03-06T06:21:09;55.70;;;31.30;;
36817;SDS011;22761;51.542;16.450;2024-03-06T06:23:37;58.50;;;31.00;;
36817;SDS011;22761;51.542;16.450;2024-03-06T06:26:06;57.20;;;30.20;;
36817;SDS011;22761;51.542;16.450;2024-03-06T06:28:34;52.30;;;29.00;;
36817;SDS011;22761;51.542;16.450;2024-03-06T06:31:03;56.20;;;31.70;;
36817;SDS011;22761;51.542;16.450;2024-03-06T06:33:32;57.60;;;30.80;;
36817;SDS011;22761;51.542;16.450;2024-03-06T06:36:00;53.90;;;30.70;;
36817;SDS011;22761;51.542;16.450;2024-03-06T06:38:28;54.40;;;29.00;;
36817;SDS011;22761;51.542;16.450;2024-03-06T06:40:56;51.60;;;27.60;;
36817;SDS011;22761;51.542;16.450;2024-03-06T06:43:25;54.00;;;29.20;;
36817;SDS011;22761;51.542;16.450;2024-03-06T06:45:53;48.30;;;29.00;;
36817;SDS011;22761;51.542;16.450;2024-03-06T06:48:23;62.40;;;31.20;;
36817;SDS011;22761;51.542;16.450;2024-03-06T06:50:52;52.10;;;30.40;;
36817;SDS011;22761;51.542;16.450;2024-03-06T06:53:20;48.00;;;28.90;;
36817;SDS011;22761;51.542;16.450;2024-03-06T06:55:48;64.30;;;32.20;;
36817;SDS011;22761;51.542;16.450;2024-03-06T06:58:17;55.60;;;28.70;;
36817;SDS011;22761;51.542;16.450;2024-03-06T07:00:45;46.90;;;29.10;;
36817;SDS011;22761;51.542;16.450;2024-03-06T07:03:13;58.30;;;30.50;;
36817;SDS011;22761;51.542;16.450;2024-03-06T07:05:42;53.50;;;30.90;;
36817;SDS011;22761;51.542;16.450;2024-03-06T07:08:10;49.10;;;28.70;;
36817;SDS011;22761;51.542;16.450;2024-03-06T07:10:39;46.20;;;28.30;;
36817;SDS011;22761;51.542;16.450;2024-03-06T07:13:07;49.40;;;28.70;;
36817;SDS011;22761;51.542;16.450;2024-03-06T07:15:36;47.00;;;29.60;;
36817;SDS011;22761;51.542;16.450;2024-03-06T07:18:04;49.10;;;27.80;;
36817;SDS011;22761;51.542;16.450;2024-03-06T07:20:34;48.40;;;28.20;;
36817;SDS011;22761;51.542;16.450;2024-03-06T07:23:02;56.50;;;31.70;;
36817;SDS011;22761;51.542;16.450;2024-03-06T07:25:30;52.70;;;30.80;;
36817;SDS011;22761;51.542;16.450;2024-03-06T07:27:59;54.80;;;32.20;;
36817;SDS011;22761;51.542;16.450;2024-03-06T07:30:27;52.90;;;30.80;;
36817;SDS011;22761;51.542;16.450;2024-03-06T07:32:57;47.20;;;29.80;;
36817;SDS011;22761;51.542;16.450;2024-03-06T07:35:26;48.20;;;29.60;;
36817;SDS011;22761;51.542;16.450;2024-03-06T07:37:54;47.30;;;28.60;;
36817;SDS011;22761;51.542;16.450;2024-03-06T07:40:22;46.30;;;29.00;;
36817;SDS011;22761;51.542;16.450;2024-03-06T07:42:50;47.70;;;28.60;;
36817;SDS011;22761;51.542;16.450;2024-03-06T07:45:19;49.20;;;26.80;;
36817;SDS011;22761;51.542;16.450;2024-03-06T07:47:48;45.70;;;27.00;;
36817;SDS011;22761;51.542;16.450;2024-03-06T07:50:16;42.50;;;26.20;;
36817;SDS011;22761;51.542;16.450;2024-03-06T07:52:47;46.80;;;27.00;;
36817;SDS011;22761;51.542;16.450;2024-03-06T07:55:14;49.50;;;28.50;;
36817;SDS011;22761;51.542;16.450;2024-03-06T07:57:42;47.70;;;28.00;;
36817;SDS011;22761;51.542;16.450;2024-03-06T08:02:46;42.30;;;26.70;;
36817;SDS011;22761;51.542;16.450;2024-03-06T08:05:17;51.50;;;27.00;;
36817;SDS011;22761;51.542;16.450;2024-03-06T08:07:45;48.20;;;26.60;;
36817;SDS011;22761;51.542;16.450;2024-03-06T08:10:13;46.00;;;28.30;;
36817;SDS011;22761;51.542;16.450;2024-03-06T08:12:41;46.60;;;29.00;;
36817;SDS011;22761;51.542;16.450;2024-03-06T08:15:10;39.40;;;26.20;;
36817;SDS011;22761;51.542;16.450;2024-03-06T08:17:38;41.40;;;26.40;;
36817;SDS011;22761;51.542;16.450;2024-03-06T08:20:09;46.70;;;27.30;;
36817;SDS011;22761;51.542;16.450;2024-03-06T08:22:37;43.40;;;27.00;;
36817;SDS011;22761;51.542;16.450;2024-03-06T08:27:39;40.20;;;24.50;;
36817;SDS011;22761;51.542;16.450;2024-03-06T08:30:07;43.30;;;25.80;;
36817;SDS011;22761;51.542;16.450;2024-03-06T08:32:35;42.70;;;27.00;;
36817;SDS011;22761;51.542;16.450;2024-03-06T08:35:04;42.20;;;25.50;;
36817;SDS011;22761;51.542;16.450;2024-03-06T08:37:33;40.40;;;25.60;;
36817;SDS011;22761;51.542;16.450;2024-03-06T08:40:01;43.80;;;27.50;;
36817;SDS011;22761;51.542;16.450;2024-03-06T08:42:28;46.50;;;27.70;;
36817;SDS011;22761;51.542;16.450;2024-03-06T08:44:56;44.80;;;27.90;;
36817;SDS011;22761;51.542;16.450;2024-03-06T08:47:23;41.00;;;27.80;;
36817;SDS011;22761;51.542;16.450;2024-03-06T08:49:51;44.90;;;28.70;;
36817;SDS011;22761;51.542;16.450;2024-03-06T08:52:18;47.70;;;29.60;;
36817;SDS011;22761;51.542;16.450;2024-03-06T08:54:47;46.50;;;29.90;;
36817;SDS011;22761;51.542;16.450;2024-03-06T08:57:15;46.50;;;27.50;;
36817;SDS011;22761;51.542;16.450;2024-03-06T08:59:43;51.40;;;29.90;;
36817;SDS011;22761;51.542;16.450;2024-03-06T09:02:14;50.60;;;31.10;;
36817;SDS011;22761;51.542;16.450;2024-03-06T09:04:42;47.50;;;29.10;;
36817;SDS011;22761;51.542;16.450;2024-03-06T09:07:10;49.40;;;29.50;;
36817;SDS011;22761;51.542;16.450;2024-03-06T09:09:37;47.30;;;30.20;;
36817;SDS011;22761;51.542;16.450;2024-03-06T09:12:06;45.50;;;29.50;;
36817;SDS011;22761;51.542;16.450;2024-03-06T09:14:40;48.20;;;29.80;;
36817;SDS011;22761;51.542;16.450;2024-03-06T09:17:08;45.20;;;28.90;;
36817;SDS011;22761;51.542;16.450;2024-03-06T09:19:42;49.30;;;32.20;;
36817;SDS011;22761;51.542;16.450;2024-03-06T09:22:25;44.50;;;29.50;;
36817;SDS011;22761;51.542;16.450;2024-03-06T09:24:53;45.10;;;29.60;;
36817;SDS011;22761;51.542;16.450;2024-03-06T09:27:20;47.50;;;30.80;;
36817;SDS011;22761;51.542;16.450;2024-03-06T09:29:47;49.70;;;32.20;;
36817;SDS011;22761;51.542;16.450;2024-03-06T09:32:14;43.60;;;30.00;;
36817;SDS011;22761;51.542;16.450;2024-03-06T09:34:45;59.50;;;32.70;;
36817;SDS011;22761;51.542;16.450;2024-03-06T09:37:12;53.40;;;31.70;;
36817;SDS011;22761;51.542;16.450;2024-03-06T09:39:39;48.40;;;31.50;;
36817;SDS011;22761;51.542;16.450;2024-03-06T09:42:07;47.00;;;30.20;;
36817;SDS011;22761;51.542;16.450;2024-03-06T09:44:34;44.30;;;29.50;;
36817;SDS011;22761;51.542;16.450;2024-03-06T09:47:02;43.10;;;30.30;;
36817;SDS011;22761;51.542;16.450;2024-03-06T09:49:31;39.00;;;27.60;;
36817;SDS011;22761;51.542;16.450;2024-03-06T09:51:58;40.40;;;29.40;;
36817;SDS011;22761;51.542;16.450;2024-03-06T09:54:25;41.50;;;28.70;;
36817;SDS011;22761;51.542;16.450;2024-03-06T09:56:54;43.10;;;28.80;;
36817;SDS011;22761;51.542;16.450;2024-03-06T09:59:22;39.00;;;29.10;;
36817;SDS011;22761;51.542;16.450;2024-03-06T10:01:52;42.10;;;30.60;;
36817;SDS011;22761;51.542;16.450;2024-03-06T10:04:21;38.90;;;27.90;;
36817;SDS011;22761;51.542;16.450;2024-03-06T10:06:53;38.30;;;28.40;;
36817;SDS011;22761;51.542;16.450;2024-03-06T10:09:24;36.80;;;28.10;;
36817;SDS011;22761;51.542;16.450;2024-03-06T10:11:52;41.50;;;28.80;;
36817;SDS011;22761;51.542;16.450;2024-03-06T10:14:30;38.60;;;29.30;;
36817;SDS011;22761;51.542;16.450;2024-03-06T10:16:58;38.80;;;27.10;;
36817;SDS011;22761;51.542;16.450;2024-03-06T10:19:28;39.20;;;28.50;;
36817;SDS011;22761;51.542;16.450;2024-03-06T10:21:56;37.20;;;27.80;;
36817;SDS011;22761;51.542;16.450;2024-03-06T10:24:26;38.20;;;28.20;;
36817;SDS011;22761;51.542;16.450;2024-03-06T10:26:55;38.70;;;29.30;;
36817;SDS011;22761;51.542;16.450;2024-03-06T10:29:26;35.00;;;27.00;;
36817;SDS011;22761;51.542;16.450;2024-03-06T10:31:57;37.10;;;28.10;;
36817;SDS011;22761;51.542;16.450;2024-03-06T10:34:26;36.40;;;27.90;;
36817;SDS011;22761;51.542;16.450;2024-03-06T10:36:55;39.80;;;29.90;;
36817;SDS011;22761;51.542;16.450;2024-03-06T10:39:23;41.90;;;28.30;;
36817;SDS011;22761;51.542;16.450;2024-03-06T10:41:52;33.40;;;27.20;;
36817;SDS011;22761;51.542;16.450;2024-03-06T10:46:51;34.00;;;26.10;;
36817;SDS011;22761;51.542;16.450;2024-03-06T10:49:25;35.30;;;26.70;;
36817;SDS011;22761;51.542;16.450;2024-03-06T10:52:01;37.60;;;29.00;;
36817;SDS011;22761;51.542;16.450;2024-03-06T10:54:29;33.70;;;27.10;;
36817;SDS011;22761;51.542;16.450;2024-03-06T10:56:59;38.00;;;29.40;;
36817;SDS011;22761;51.542;16.450;2024-03-06T10:59:26;36.90;;;27.50;;
36817;SDS011;22761;51.542;16.450;2024-03-06T11:01:55;35.60;;;28.10;;
36817;SDS011;22761;51.542;16.450;2024-03-06T11:04:31;37.00;;;27.50;;
36817;SDS011;22761;51.542;16.450;2024-03-06T11:07:02;36.10;;;26.60;;
36817;SDS011;22761;51.542;16.450;2024-03-06T11:09:33;37.30;;;27.60;;
36817;SDS011;22761;51.542;16.450;2024-03-06T11:12:02;43.90;;;31.40;;
36817;SDS011;22761;51.542;16.450;2024-03-06T11:14:33;41.30;;;30.60;;
36817;SDS011;22761;51.542;16.450;2024-03-06T11:17:04;36.90;;;27.60;;
36817;SDS011;22761;51.542;16.450;2024-03-06T11:28:37;38.20;;;26.90;;
36817;SDS011;22761;51.542;16.450;2024-03-06T11:31:08;36.30;;;27.10;;
36817;SDS011;22761;51.542;16.450;2024-03-06T11:33:42;36.40;;;27.40;;
36817;SDS011;22761;51.542;16.450;2024-03-06T11:41:27;37.50;;;27.50;;
36817;SDS011;22761;51.542;16.450;2024-03-06T11:43:55;38.00;;;30.10;;
36817;SDS011;22761;51.542;16.450;2024-03-06T11:49:31;38.90;;;27.10;;
36817;SDS011;22761;51.542;16.450;2024-03-06T11:52:01;40.90;;;29.20;;
36817;SDS011;22761;51.542;16.450;2024-03-06T11:54:34;41.80;;;30.50;;
36817;SDS011;22761;51.542;16.450;2024-03-06T11:57:03;40.10;;;29.00;;
36817;SDS011;22761;51.542;16.450;2024-03-06T11:59:32;40.80;;;30.20;;
36817;SDS011;22761;51.542;16.450;2024-03-06T12:02:01;34.80;;;27.60;;
36817;SDS011;22761;51.542;16.450;2024-03-06T12:04:31;31.40;;;24.30;;
36817;SDS011;22761;51.542;16.450;2024-03-06T12:07:00;34.50;;;26.00;;
36817;SDS011;22761;51.542;16.450;2024-03-06T12:09:33;37.90;;;28.10;;
36817;SDS011;22761;51.542;16.450;2024-03-06T12:12:07;32.30;;;24.90;;
36817;SDS011;22761;51.542;16.450;2024-03-06T12:14:36;34.60;;;23.20;;
36817;SDS011;22761;51.542;16.450;2024-03-06T12:17:11;33.10;;;22.80;;
36817;SDS011;22761;51.542;16.450;2024-03-06T12:19:41;30.60;;;21.60;;
36817;SDS011;22761;51.542;16.450;2024-03-06T12:22:10;29.70;;;21.60;;
36817;SDS011;22761;51.542;16.450;2024-03-06T12:24:37;25.20;;;19.30;;
36817;SDS011;22761;51.542;16.450;2024-03-06T12:27:05;31.50;;;24.20;;
36817;SDS011;22761;51.542;16.450;2024-03-06T12:29:34;27.90;;;21.50;;
36817;SDS011;22761;51.542;16.450;2024-03-06T12:32:03;40.80;;;29.70;;
36817;SDS011;22761;51.542;16.450;2024-03-06T12:34:30;34.60;;;25.30;;
36817;SDS011;22761;51.542;16.450;2024-03-06T12:37:10;31.40;;;23.50;;
36817;SDS011;22761;51.542;16.450;2024-03-06T12:42:09;31.90;;;22.60;;
36817;SDS011;22761;51.542;16.450;2024-03-06T12:44:39;31.50;;;19.90;;
36817;SDS011;22761;51.542;16.450;2024-03-06T12:47:08;24.20;;;18.90;;
36817;SDS011;22761;51.542;16.450;2024-03-06T12:49:35;28.50;;;21.90;;
36817;SDS011;22761;51.542;16.450;2024-03-06T12:52:02;27.50;;;22.20;;
36817;SDS011;22761;51.542;16.450;2024-03-06T12:54:32;28.60;;;21.40;;
36817;SDS011;22761;51.542;16.450;2024-03-06T12:56:59;31.00;;;22.90;;
36817;SDS011;22761;51.542;16.450;2024-03-06T12:59:26;28.80;;;22.60;;
36817;SDS011;22761;51.542;16.450;2024-03-06T13:01:53;32.20;;;23.50;;
36817;SDS011;22761;51.542;16.450;2024-03-06T13:04:21;32.60;;;25.60;;
36817;SDS011;22761;51.542;16.450;2024-03-06T13:06:48;34.90;;;24.60;;
36817;SDS011;22761;51.542;16.450;2024-03-06T13:09:15;35.40;;;23.70;;
36817;SDS011;22761;51.542;16.450;2024-03-06T13:11:43;32.40;;;22.80;;
36817;SDS011;22761;51.542;16.450;2024-03-06T13:14:10;30.80;;;22.20;;
36817;SDS011;22761;51.542;16.450;2024-03-06T13:16:39;33.80;;;22.40;;
36817;SDS011;22761;51.542;16.450;2024-03-06T13:19:07;36.10;;;25.40;;
36817;SDS011;22761;51.542;16.450;2024-03-06T13:21:35;35.60;;;24.00;;
36817;SDS011;22761;51.542;16.450;2024-03-06T13:24:02;37.10;;;27.40;;
36817;SDS011;22761;51.542;16.450;2024-03-06T13:26:30;38.60;;;26.90;;
36817;SDS011;22761;51.542;16.450;2024-03-06T13:28:57;38.60;;;25.60;;
36817;SDS011;22761;51.542;16.450;2024-03-06T13:31:27;43.90;;;29.20;;
36817;SDS011;22761;51.542;16.450;2024-03-06T13:33:54;36.00;;;26.00;;
36817;SDS011;22761;51.542;16.450;2024-03-06T13:36:21;41.90;;;26.90;;
36817;SDS011;22761;51.542;16.450;2024-03-06T13:38:49;32.00;;;23.30;;
36817;SDS011;22761;51.542;16.450;2024-03-06T13:41:17;31.70;;;21.50;;
36817;SDS011;22761;51.542;16.450;2024-03-06T13:43:44;31.00;;;23.30;;
36817;SDS011;22761;51.542;16.450;2024-03-06T13:46:11;40.20;;;29.00;;
36817;SDS011;22761;51.542;16.450;2024-03-06T13:48:39;43.80;;;31.20;;
36817;SDS011;22761;51.542;16.450;2024-03-06T13:51:06;38.10;;;26.30;;
36817;SDS011;22761;51.542;16.450;2024-03-06T13:53:34;37.40;;;26.00;;
36817;SDS011;22761;51.542;16.450;2024-03-06T13:56:01;37.30;;;25.80;;
36817;SDS011;22761;51.542;16.450;2024-03-06T13:58:29;34.20;;;23.50;;
36817;SDS011;22761;51.542;16.450;2024-03-06T14:00:56;35.10;;;22.70;;
36817;SDS011;22761;51.542;16.450;2024-03-06T14:03:24;34.50;;;23.30;;
36817;SDS011;22761;51.542;16.450;2024-03-06T14:05:52;38.00;;;25.00;;
36817;SDS011;22761;51.542;16.450;2024-03-06T14:08:20;31.90;;;21.40;;
36817;SDS011;22761;51.542;16.450;2024-03-06T14:10:49;28.40;;;21.00;;
36817;SDS011;22761;51.542;16.450;2024-03-06T14:13:17;27.10;;;20.30;;
36817;SDS011;22761;51.542;16.450;2024-03-06T14:15:44;28.90;;;21.30;;
36817;SDS011;22761;51.542;16.450;2024-03-06T14:18:11;31.00;;;22.30;;
36817;SDS011;22761;51.542;16.450;2024-03-06T14:20:38;33.90;;;23.70;;
36817;SDS011;22761;51.542;16.450;2024-03-06T14:23:06;29.40;;;21.50;;
36817;SDS011;22761;51.542;16.450;2024-03-06T14:25:35;24.00;;;17.50;;
36817;SDS011;22761;51.542;16.450;2024-03-06T14:28:04;24.90;;;17.90;;
36817;SDS011;22761;51.542;16.450;2024-03-06T14:30:31;22.60;;;14.90;;
36817;SDS011;22761;51.542;16.450;2024-03-06T14:32:59;20.30;;;14.40;;
36817;SDS011;22761;51.542;16.450;2024-03-06T14:35:26;23.20;;;15.30;;
36817;SDS011;22761;51.542;16.450;2024-03-06T14:37:53;24.30;;;16.20;;
36817;SDS011;22761;51.542;16.450;2024-03-06T14:40:20;26.40;;;16.80;;
36817;SDS011;22761;51.542;16.450;2024-03-06T14:42:48;25.50;;;15.00;;
36817;SDS011;22761;51.542;16.450;2024-03-06T14:45:18;22.30;;;14.40;;
36817;SDS011;22761;51.542;16.450;2024-03-06T14:47:46;23.30;;;14.50;;
36817;SDS011;22761;51.542;16.450;2024-03-06T14:50:14;26.40;;;15.00;;